Climatologie pour Saint-Brevin les Pins
Jour • Résumé pour juillet 4, 2017 Système :  Métrique    Anglais   Mixte
« - 1 jour
+ 1 jour »
Jour Semaine Mois Année Personnalisé
  Maximum : Minimum : Moyenne :
Température sous abri : -17.8 °C -11.6 °C -6.4 °C
Point de rosée : -17.8 °C -11.9 °C -9.4 °C
Humidité : Humidity % 49 % 74 %
Vitesse du vent : 0 km/h 0 km/h 5.1 km/h
Rafale : 0 km/h - -
Direction :- - South
Pression : 0 hPa 34361.1 hPa -
Précipitations : 0 mm    
Historical Graphs
 
 
Tableau de données pour juillet 4, 2017
Heure Tempé Pt rosée Pression Vent Vitesse Rafale Humidité Taux pluie (/hr) Soleil
-17.8 °C -17.8 °C 0 hPa Calm     Humidity % 0 mm SolarRadiationWatts/m^2 W/m2 Conditions
00:00 -9.8 °C -10.4 °C 34625.2 hPa WNW 7.7 km/h 7.7 km/h 94 % 0 mm 0 W/m2
00:10 -9.9 °C -10.4 °C 34625.2 hPa Calm   10.3 km/h 94 % 0 mm 0 W/m2
00:15 -10 °C -10.6 °C 34625.2 hPa WNW 7.7 km/h 7.7 km/h 94 % 0 mm 0 W/m2
00:20 -10.1 °C -10.4 °C 34625.2 hPa Calm   7.7 km/h 95 % 0 mm 0 W/m2
00:25 -10.1 °C -10.4 °C 34625.2 hPa Calm   7.7 km/h 95 % 0 mm 0 W/m2
00:30 -10.1 °C -10.6 °C 34625.2 hPa Calm   10.3 km/h 95 % 0 mm 0 W/m2
00:35 -10.1 °C -10.6 °C 34625.2 hPa Calm   10.3 km/h 95 % 0 mm 0 W/m2
00:40 -10.2 °C -10.6 °C 34625.2 hPa WNW 5.1 km/h 7.7 km/h 95 % 0 mm 0 W/m2
00:45 -10.1 °C -10.4 °C 34625.2 hPa Calm   5.1 km/h 96 % 0 mm 0 W/m2
00:50 -10.1 °C -10.4 °C 34625.2 hPa Calm   5.1 km/h 96 % 0 mm 0 W/m2
00:55 -10.2 °C -10.5 °C 34625.2 hPa Calm   2.6 km/h 96 % 0 mm 0 W/m2
01:00 -10.2 °C -10.5 °C 34625.2 hPa Calm     96 % 0 mm 0 W/m2
01:05 -10.2 °C -10.5 °C 34625.2 hPa Calm     96 % 0 mm 0 W/m2
01:10 -10.2 °C -10.6 °C 34625.2 hPa Calm     96 % 0 mm 0 W/m2
01:15 -10.3 °C -10.6 °C 34625.2 hPa Calm     96 % 0 mm 0 W/m2
01:20 -10.3 °C -10.7 °C 34625.2 hPa Calm     96 % 0 mm 0 W/m2
01:25 -10.3 °C -10.7 °C 34625.2 hPa Calm     96 % 0 mm 0 W/m2
01:35 -10.3 °C -10.7 °C 34625.2 hPa Calm   2.6 km/h 96 % 0 mm 0 W/m2
01:40 -10.3 °C -10.7 °C 34625.2 hPa Calm   2.6 km/h 96 % 0 mm 0 W/m2
01:45 -10.3 °C -10.6 °C 34611.7 hPa Calm     96 % 0 mm 0 W/m2
01:50 -10.3 °C -10.7 °C 34611.7 hPa Calm     96 % 0 mm 0 W/m2
01:55 -10.4 °C -10.7 °C 34611.7 hPa Calm   2.6 km/h 96 % 0 mm 0 W/m2
02:00 -10.4 °C -10.7 °C 34611.7 hPa Calm   2.6 km/h 96 % 0 mm 0 W/m2
02:05 -10.4 °C -10.7 °C 34611.7 hPa Calm   2.6 km/h 96 % 0 mm 0 W/m2
02:10 -10.4 °C -10.7 °C 34611.7 hPa Calm   2.6 km/h 96 % 0 mm 0 W/m2
02:15 -10.5 °C -10.8 °C 34611.7 hPa Calm     96 % 0 mm 0 W/m2
02:20 -10.6 °C -10.9 °C 34611.7 hPa Calm     96 % 0 mm 0 W/m2
02:25 -10.6 °C -10.9 °C 34611.7 hPa Calm     96 % 0 mm 0 W/m2
02:30 -10.7 °C -11 °C 34611.7 hPa Calm     96 % 0 mm 0 W/m2
02:35 -10.8 °C -11.1 °C 34601.5 hPa Calm     96 % 0 mm 0 W/m2
02:40 -10.8 °C -11.2 °C 34601.5 hPa Calm     96 % 0 mm 0 W/m2
02:45 -10.9 °C -11.2 °C 34601.5 hPa Calm     96 % 0 mm 0 W/m2
02:50 -10.9 °C -11.3 °C 34601.5 hPa Calm     96 % 0 mm 0 W/m2
02:55 -11 °C -11.3 °C 34601.5 hPa Calm     96 % 0 mm 0 W/m2
03:00 -11.1 °C -11.4 °C 34601.5 hPa Calm     96 % 0 mm 0 W/m2
03:05 -11.1 °C -11.4 °C 34601.5 hPa Calm     96 % 0 mm 0 W/m2
03:10 -11.2 °C -11.5 °C 34601.5 hPa Calm     96 % 0 mm 0 W/m2
03:15 -11.2 °C -11.4 °C 34601.5 hPa Calm     97 % 0 mm 0 W/m2
03:20 -11.2 °C -11.5 °C 34601.5 hPa Calm     96 % 0 mm 0 W/m2
03:25 -11.2 °C -11.6 °C 34601.5 hPa Calm     96 % 0 mm 0 W/m2
03:30 -11.2 °C -11.4 °C 34601.5 hPa Calm     97 % 0 mm 0 W/m2
03:35 -11.3 °C -11.6 °C 34601.5 hPa Calm     96 % 0 mm 0 W/m2
03:40 -11.3 °C -11.5 °C 34591.4 hPa Calm     97 % 0 mm 0 W/m2
03:45 -11.2 °C -11.4 °C 34591.4 hPa Calm     97 % 0 mm 0 W/m2
03:50 -11.3 °C -11.6 °C 34591.4 hPa Calm     96 % 0 mm 0 W/m2
03:55 -11.3 °C -11.5 °C 34591.4 hPa Calm     97 % 0 mm 0 W/m2
04:00 -11.3 °C -11.5 °C 34591.4 hPa Calm   2.6 km/h 97 % 0 mm 0 W/m2
04:05 -11.3 °C -11.6 °C 34591.4 hPa Calm   2.6 km/h 97 % 0 mm 0 W/m2
04:10 -11.4 °C -11.7 °C 34577.8 hPa Calm     97 % 0 mm 0 W/m2
04:15 -11.4 °C -11.7 °C 34577.8 hPa Calm     97 % 0 mm 0 W/m2
04:20 -11.5 °C -11.8 °C 34577.8 hPa Calm     97 % 0 mm 0 W/m2
04:25 -11.6 °C -11.9 °C 34577.8 hPa Calm     96 % 0 mm 0 W/m2
04:30 -11.6 °C -11.8 °C 34577.8 hPa Calm     97 % 0 mm 0 W/m2
04:35 -11.6 °C -11.8 °C 34567.7 hPa Calm     97 % 0 mm 0 W/m2
04:40 -11.6 °C -11.9 °C 34567.7 hPa NE 2.6 km/h 7.7 km/h 97 % 0 mm 0 W/m2
04:45 -11.6 °C -11.8 °C 34567.7 hPa Calm   7.7 km/h 97 % 0 mm 0 W/m2
04:50 -11.6 °C -11.8 °C 34567.7 hPa Calm   5.1 km/h 97 % 0 mm 0 W/m2
04:55 -11.6 °C -11.8 °C 34567.7 hPa Calm   5.1 km/h 97 % 0 mm 0 W/m2
05:00 -11.6 °C -11.8 °C 34567.7 hPa Calm   2.6 km/h 97 % 0 mm 0 W/m2
05:05 -11.5 °C -11.7 °C 34567.7 hPa Calm   5.1 km/h 97 % 0 mm 0 W/m2
05:10 -11.5 °C -11.8 °C 34567.7 hPa Calm   5.1 km/h 97 % 0 mm 0 W/m2
05:20 -11.6 °C -11.8 °C 34567.7 hPa Calm   7.7 km/h 97 % 0 mm 0 W/m2
05:25 -11.5 °C -11.8 °C 34554.1 hPa Calm   5.1 km/h 97 % 0 mm 0 W/m2
05:30 -11.6 °C -11.8 °C 34567.7 hPa NE 2.6 km/h 5.1 km/h 97 % 0 mm 0 W/m2
05:35 -11.3 °C -11.5 °C 34567.7 hPa Calm   5.1 km/h 98 % 0 mm 0 W/m2
05:40 -11.3 °C -11.6 °C 34567.7 hPa Calm   5.1 km/h 97 % 0 mm 0 W/m2
05:45 -11.3 °C -11.6 °C 34554.1 hPa NE 2.6 km/h 7.7 km/h 97 % 0 mm 0 W/m2
05:50 -11.2 °C -11.5 °C 34554.1 hPa NE 5.1 km/h 7.7 km/h 97 % 0 mm 0 W/m2
05:55 -11.2 °C -11.4 °C 34554.1 hPa Calm   7.7 km/h 97 % 0 mm 0 W/m2
06:00 -11 °C -11.2 °C 34554.1 hPa NE 2.6 km/h 7.7 km/h 98 % 0 mm 0 W/m2
06:05 -10.9 °C -11.1 °C 34567.7 hPa NE 2.6 km/h 7.7 km/h 98 % 0 mm 0 W/m2
06:10 -10.9 °C -11.2 °C 34567.7 hPa NE 2.6 km/h 7.7 km/h 97 % 0 mm 0 W/m2
06:15 -10.9 °C -11.2 °C 34554.1 hPa NE 2.6 km/h 10.3 km/h 97 % 0 mm 0 W/m2
06:20 -10.8 °C -11.1 °C 34554.1 hPa ENE 7.7 km/h 10.3 km/h 97 % 0 mm 0 W/m2
06:25 -10.7 °C -10.9 °C 34554.1 hPa Calm   10.3 km/h 98 % 0 mm 5 W/m2
06:35 -11.1 °C -11.3 °C 34554.1 hPa Calm   5.1 km/h 97 % 0 mm 9 W/m2
06:40 -11.1 °C -11.3 °C 34554.1 hPa Calm   5.1 km/h 97 % 0 mm 11 W/m2
06:45 -11 °C -11.3 °C 34554.1 hPa Calm   5.1 km/h 97 % 0 mm 12 W/m2
06:50 -10.9 °C -11.1 °C 34554.1 hPa East 5.1 km/h 7.7 km/h 98 % 0 mm 14 W/m2
06:55 -10.8 °C -11 °C 34544 hPa Calm   10.3 km/h 98 % 0 mm 16 W/m2
07:00 -10.7 °C -10.9 °C 34544 hPa Calm   10.3 km/h 98 % 0 mm 18 W/m2
07:05 -10.7 °C -10.8 °C 34544 hPa East 5.1 km/h 10.3 km/h 98 % 0 mm 19 W/m2
07:10 -10.6 °C -10.8 °C 34544 hPa Calm   10.3 km/h 98 % 0 mm 21 W/m2
07:15 -10.6 °C -10.7 °C 34544 hPa East 2.6 km/h 7.7 km/h 98 % 0 mm 23 W/m2
07:20 -10.5 °C -10.7 °C 34544 hPa East 5.1 km/h 7.7 km/h 98 % 0 mm 23 W/m2
07:25 -10.4 °C -10.6 °C 34544 hPa East 2.6 km/h 7.7 km/h 98 % 0 mm 25 W/m2
07:30 -10.3 °C -10.5 °C 34544 hPa East 2.6 km/h 12.9 km/h 98 % 0 mm 26 W/m2
07:35 -10.3 °C -10.4 °C 34544 hPa East 2.6 km/h 12.9 km/h 98 % 0 mm 28 W/m2
07:40 -10.2 °C -10.3 °C 34544 hPa East 7.7 km/h 15.6 km/h 98 % 0 mm 30 W/m2
07:45 -10.1 °C -10.4 °C 34544 hPa Calm   15.6 km/h 97 % 0 mm 32 W/m2
07:50 -10.1 °C -10.2 °C 34544 hPa East 5.1 km/h 15.6 km/h 98 % 0 mm 32 W/m2
07:55 -9.9 °C -10.2 °C 34554.1 hPa East 5.1 km/h 12.9 km/h 97 % 0 mm 88 W/m2
08:00 -9.9 °C -10.2 °C 34554.1 hPa East 5.1 km/h 18.2 km/h 97 % 0 mm 207 W/m2
08:05 -9.8 °C -10.1 °C 34554.1 hPa Calm   18.2 km/h 97 % 0 mm 223 W/m2
08:10 -9.7 °C -9.9 °C 34544 hPa ENE 5.1 km/h 15.6 km/h 97 % 0 mm 237 W/m2
08:15 -9.6 °C -9.8 °C 34544 hPa ESE 2.6 km/h 20.8 km/h 97 % 0 mm 251 W/m2
08:20 -9.4 °C -9.8 °C 34544 hPa ENE 5.1 km/h 20.8 km/h 96 % 0 mm 265 W/m2
08:25 -9.3 °C -9.6 °C 34544 hPa East 7.7 km/h 15.6 km/h 96 % 0 mm 278 W/m2
08:30 -9.1 °C -9.5 °C 34544 hPa Calm   15.6 km/h 96 % 0 mm 290 W/m2
08:35 -9 °C -9.4 °C 34544 hPa East 7.7 km/h 18.2 km/h 95 % 0 mm 306 W/m2
08:40 -8.8 °C -9.3 °C 34544 hPa East 5.1 km/h 18.2 km/h 94 % 0 mm 322 W/m2
08:45 -8.6 °C -9.2 °C 34544 hPa East 7.7 km/h 18.2 km/h 93 % 0 mm 336 W/m2
08:50 -8.4 °C -9.1 °C 34544 hPa ENE 5.1 km/h 15.6 km/h 92 % 0 mm 350 W/m2
08:55 -8.2 °C -9 °C 34544 hPa Calm   12.9 km/h 91 % 0 mm 360 W/m2
09:05 -7.7 °C -8.8 °C 34554.1 hPa SE 2.6 km/h 12.9 km/h 88 % 0 mm 387 W/m2
09:10 -7.5 °C -8.9 °C 34544 hPa ESE 10.3 km/h 18.2 km/h 85 % 0 mm 403 W/m2
09:15 -7.4 °C -8.9 °C 34544 hPa ESE 2.6 km/h 18.2 km/h 84 % 0 mm 418 W/m2
09:20 -7.3 °C -9 °C 34544 hPa SE 7.7 km/h 18.2 km/h 82 % 0 mm 432 W/m2
09:25 -7.2 °C -9.2 °C 34554.1 hPa SE 10.3 km/h 18.2 km/h 80 % 0 mm 446 W/m2
09:30 -7.1 °C -9.2 °C 34554.1 hPa SE 7.7 km/h 18.2 km/h 79 % 0 mm 459 W/m2
09:35 -7 °C -9.1 °C 34554.1 hPa SE 7.7 km/h 18.2 km/h 79 % 0 mm 471 W/m2
09:40 -6.9 °C -8.9 °C 34554.1 hPa SE 7.7 km/h 12.9 km/h 80 % 0 mm 485 W/m2
09:45 -6.7 °C -9.1 °C 34554.1 hPa Calm   12.9 km/h 77 % 0 mm 497 W/m2
09:50 -6.7 °C -8.9 °C 34554.1 hPa SSE 7.7 km/h 12.9 km/h 78 % 0 mm 513 W/m2
09:55 -6.6 °C -9.1 °C 34554.1 hPa SSE 2.6 km/h 10.3 km/h 75 % 0 mm 527 W/m2
10:00 -6.3 °C -8.7 °C 34554.1 hPa ESE 7.7 km/h 10.3 km/h 76 % 0 mm 541 W/m2
10:05 -6.3 °C -8.9 °C 34554.1 hPa Calm   12.9 km/h 74 % 0 mm 552 W/m2
10:10 -6.2 °C -8.9 °C 34544 hPa ESE 7.7 km/h 12.9 km/h 74 % 0 mm 566 W/m2
10:15 -5.9 °C -8.7 °C 34554.1 hPa Calm   12.9 km/h 73 % 0 mm 577 W/m2
10:20 -5.8 °C -8.6 °C 34554.1 hPa SE 7.7 km/h 12.9 km/h 73 % 0 mm 591 W/m2
10:25 -5.7 °C -8.6 °C 34544 hPa SSE 5.1 km/h 12.9 km/h 72 % 0 mm 605 W/m2
10:30 -5.2 °C -8.3 °C 34544 hPa Calm   12.9 km/h 71 % 0 mm 617 W/m2
10:35 -5.2 °C -8.8 °C 34544 hPa East 5.1 km/h 12.9 km/h 67 % 0 mm 629 W/m2
10:40 -5.1 °C -8.4 °C 34544 hPa East 7.7 km/h 18.2 km/h 69 % 0 mm 640 W/m2
10:45 -4.8 °C -8.6 °C 34544 hPa ESE 7.7 km/h 18.2 km/h 66 % 0 mm 652 W/m2
10:50 -4.7 °C -8.4 °C 34533.8 hPa Calm   18.2 km/h 66 % 0 mm 666 W/m2
10:55 -4.7 °C -8.6 °C 34533.8 hPa SSW 10.3 km/h 18.2 km/h 65 % 0 mm 671 W/m2
11:00 -4.6 °C -8.6 °C 34533.8 hPa SSW 10.3 km/h 18.2 km/h 64 % 0 mm 689 W/m2
11:05 -4.3 °C -8.4 °C 34533.8 hPa ESE 12.9 km/h 15.6 km/h 63 % 0 mm 696 W/m2
11:10 -4.2 °C -8.6 °C 34520.3 hPa South 5.1 km/h 18.2 km/h 62 % 0 mm 705 W/m2
11:15 -4.3 °C -8.4 °C 34520.3 hPa Calm   18.2 km/h 63 % 0 mm 719 W/m2
11:20 -4 °C -8.6 °C 34520.3 hPa East 5.1 km/h 20.8 km/h 60 % 0 mm 728 W/m2
11:25 -3.9 °C -8.7 °C 34520.3 hPa ESE 7.7 km/h 20.8 km/h 59 % 0 mm 742 W/m2
11:30 -3.9 °C -8.5 °C 34520.3 hPa South 5.1 km/h 20.8 km/h 60 % 0 mm 751 W/m2
11:35 -3.9 °C -8.7 °C 34520.3 hPa Calm   20.8 km/h 59 % 0 mm 759 W/m2
11:40 -3.7 °C -8.6 °C 34520.3 hPa SSW 10.3 km/h 18.2 km/h 58 % 0 mm 773 W/m2
11:45 -3.7 °C -8.9 °C 34520.3 hPa SSE 5.1 km/h 25.9 km/h 56 % 0 mm 779 W/m2
11:50 -3.7 °C -9.1 °C 34520.3 hPa Calm   25.9 km/h 55 % 0 mm 782 W/m2
11:55 -3.7 °C -8.6 °C 34520.3 hPa SE 18.2 km/h 18.2 km/h 58 % 0 mm 791 W/m2
12:00 -3.4 °C -9 °C 34520.3 hPa SE 10.3 km/h 23.3 km/h 54 % 0 mm 802 W/m2
12:05 -3.5 °C -8.7 °C 34510.1 hPa East 2.6 km/h 23.3 km/h 56 % 0 mm 809 W/m2
12:10 -3.2 °C -8.6 °C 34510.1 hPa ESE 2.6 km/h 20.8 km/h 55 % 0 mm 821 W/m2
12:15 -2.9 °C -8.9 °C 34510.1 hPa SSW 12.9 km/h 23.3 km/h 52 % 0 mm 828 W/m2
12:20 -2.9 °C -8.6 °C 34510.1 hPa ENE 2.6 km/h 23.3 km/h 54 % 0 mm 833 W/m2
12:25 -2.9 °C -9.4 °C 34510.1 hPa Calm   18.2 km/h 49 % 0 mm 844 W/m2
12:30 -3.2 °C -9.3 °C 34510.1 hPa ESE 5.1 km/h 18.2 km/h 51 % 0 mm 844 W/m2
12:35 -3.2 °C -9.2 °C 34510.1 hPa Calm   10.3 km/h 52 % 0 mm 870 W/m2
12:40 -3.5 °C -8.3 °C 34510.1 hPa WSW 15.6 km/h 23.3 km/h 59 % 0 mm 886 W/m2
12:45 -3.1 °C -7.9 °C 34510.1 hPa WNW 20.8 km/h 25.9 km/h 59 % 0 mm 840 W/m2
12:50 -3.3 °C -7.8 °C 34510.1 hPa WNW 7.7 km/h 25.9 km/h 61 % 0 mm 828 W/m2
12:55 -3.7 °C -7.8 °C 34510.1 hPa WNW 10.3 km/h 18.2 km/h 64 % 0 mm 821 W/m2
13:00 -3.8 °C -8.2 °C 34496.6 hPa West 10.3 km/h 20.8 km/h 61 % 0 mm 740 W/m2
13:05 -3.6 °C -7.8 °C 34510.1 hPa WSW 12.9 km/h 20.8 km/h 63 % 0 mm 949 W/m2
13:10 -3.4 °C -7.8 °C 34496.6 hPa SW 12.9 km/h 20.8 km/h 62 % 0 mm 979 W/m2
13:15 -3.5 °C -7.8 °C 34496.6 hPa West 2.6 km/h 20.8 km/h 62 % 0 mm 956 W/m2
13:20 -3.1 °C -7.5 °C 34496.6 hPa WNW 15.6 km/h 20.8 km/h 62 % 0 mm 874 W/m2
13:25 -3.2 °C -7.7 °C 34496.6 hPa West 18.2 km/h 23.3 km/h 61 % 0 mm 849 W/m2
13:30 -3.7 °C -8.2 °C 34496.6 hPa West 15.6 km/h 23.3 km/h 61 % 0 mm 701 W/m2
13:35 -3.6 °C -7.9 °C 34486.4 hPa West 7.7 km/h 18.2 km/h 62 % 0 mm 782 W/m2
13:40 -3.4 °C -8 °C 34496.6 hPa West 15.6 km/h 15.6 km/h 60 % 0 mm 867 W/m2
13:45 -3.2 °C -8 °C 34486.4 hPa NW 15.6 km/h 20.8 km/h 59 % 0 mm 972 W/m2
13:50 -3.4 °C -8 °C 34486.4 hPa Calm   20.8 km/h 60 % 0 mm 882 W/m2
13:55 -3.8 °C -8.2 °C 34486.4 hPa West 15.6 km/h 23.3 km/h 61 % 0 mm 668 W/m2
14:00 -4.1 °C -8.4 °C 34486.4 hPa West 5.1 km/h 23.3 km/h 62 % 0 mm 543 W/m2
14:05 -3.9 °C -8.6 °C 34486.4 hPa WSW 15.6 km/h 18.2 km/h 60 % 0 mm 986 W/m2
14:10 -3.2 °C -7.9 °C 34476.3 hPa WNW 7.7 km/h 18.2 km/h 60 % 0 mm 958 W/m2
14:15 -2.7 °C -8 °C 34476.3 hPa WNW 10.3 km/h 18.2 km/h 56 % 0 mm 918 W/m2
14:20 -2.5 °C -7.7 °C 34476.3 hPa WNW 7.7 km/h 18.2 km/h 57 % 0 mm 728 W/m2
14:25 -2.9 °C -8.5 °C 34476.3 hPa Calm   15.6 km/h 54 % 0 mm 452 W/m2
14:30 -2.7 °C -8.4 °C 34476.3 hPa NW 10.3 km/h 15.6 km/h 53 % 0 mm 751 W/m2
14:35 -2.7 °C -8.2 °C 34476.3 hPa WNW 15.6 km/h 20.8 km/h 55 % 0 mm 343 W/m2
14:40 -3.4 °C -8.1 °C 34486.4 hPa West 18.2 km/h 23.3 km/h 60 % 0 mm 367 W/m2
14:45 -4.1 °C -7.9 °C 34476.3 hPa WNW 7.7 km/h 23.3 km/h 66 % 0 mm 745 W/m2
14:50 -3.7 °C -7.4 °C 34476.3 hPa West 7.7 km/h 23.3 km/h 66 % 0 mm 817 W/m2
14:55 -3.2 °C -7.9 °C 34476.3 hPa West 12.9 km/h 20.8 km/h 60 % 0 mm 963 W/m2
15:00 -3.2 °C -8.1 °C 34476.3 hPa WSW 10.3 km/h 20.8 km/h 59 % 0 mm 933 W/m2
15:05 -3.3 °C -7.8 °C 34462.7 hPa WSW 12.9 km/h 18.2 km/h 61 % 0 mm 747 W/m2
15:10 -3.4 °C -7.9 °C 34462.7 hPa WSW 7.7 km/h 18.2 km/h 61 % 0 mm 949 W/m2
15:15 -3.2 °C -7.8 °C 34462.7 hPa West 5.1 km/h 15.6 km/h 60 % 0 mm 824 W/m2
15:20 -3.3 °C -7.8 °C 34462.7 hPa WSW 10.3 km/h 18.2 km/h 61 % 0 mm 724 W/m2
15:25 -3.5 °C -7.8 °C 34462.7 hPa WSW 10.3 km/h 18.2 km/h 62 % 0 mm 881 W/m2
15:30 -3.4 °C -7.9 °C 34462.7 hPa West 7.7 km/h 18.2 km/h 61 % 0 mm 867 W/m2
15:35 -3.4 °C -7.9 °C 34462.7 hPa West 10.3 km/h 23.3 km/h 61 % 0 mm 851 W/m2
15:40 -3.5 °C -7.8 °C 34452.6 hPa SW 18.2 km/h 23.3 km/h 62 % 0 mm 844 W/m2
15:45 -3.6 °C -8.1 °C 34452.6 hPa SW 7.7 km/h 23.3 km/h 61 % 0 mm 833 W/m2
15:50 -3.6 °C -7.9 °C 34452.6 hPa West 7.7 km/h 23.3 km/h 62 % 0 mm 826 W/m2
15:55 -3.7 °C -8.2 °C 34452.6 hPa WSW 2.6 km/h 23.3 km/h 61 % 0 mm 821 W/m2
16:00 -3.4 °C -7.9 °C 34452.6 hPa West 12.9 km/h 18.2 km/h 61 % 0 mm 816 W/m2
16:05 -3.4 °C -7.9 °C 34452.6 hPa West 7.7 km/h 20.8 km/h 61 % 0 mm 803 W/m2
16:10 -2.8 °C -7.5 °C 34452.6 hPa West 5.1 km/h 20.8 km/h 60 % 0 mm 800 W/m2
16:15 -3.1 °C -8.2 °C 34452.6 hPa WSW 12.9 km/h 18.2 km/h 57 % 0 mm 793 W/m2
16:20 -3.7 °C -8.2 °C 34452.6 hPa WSW 10.3 km/h 23.3 km/h 61 % 0 mm 780 W/m2
16:25 -3.9 °C -8.3 °C 34452.6 hPa WNW 7.7 km/h 23.3 km/h 61 % 0 mm 777 W/m2
16:30 -3.3 °C -8.4 °C 34452.6 hPa WSW 5.1 km/h 20.8 km/h 57 % 0 mm 763 W/m2
16:35 -3.2 °C -8.5 °C 34442.4 hPa WSW 7.7 km/h 20.8 km/h 56 % 0 mm 761 W/m2
16:40 -2.9 °C -8.4 °C 34442.4 hPa West 12.9 km/h 20.8 km/h 55 % 0 mm 751 W/m2
16:45 -2.9 °C -8.3 °C 34442.4 hPa WSW 12.9 km/h 18.2 km/h 55 % 0 mm 738 W/m2
16:50 -2.9 °C -8.3 °C 34442.4 hPa West 12.9 km/h 18.2 km/h 55 % 0 mm 728 W/m2
16:55 -3.2 °C -8.4 °C 34442.4 hPa WSW 10.3 km/h 23.3 km/h 56 % 0 mm 719 W/m2
17:00 -3.1 °C -8.1 °C 34442.4 hPa West 10.3 km/h 25.9 km/h 58 % 0 mm 710 W/m2
17:05 -2.9 °C -7.7 °C 34442.4 hPa West 5.1 km/h 25.9 km/h 59 % 0 mm 701 W/m2
17:10 -2.9 °C -7.9 °C 34428.8 hPa Calm   18.2 km/h 58 % 0 mm 691 W/m2
17:15 -2.9 °C -7.8 °C 34428.8 hPa West 7.7 km/h 18.2 km/h 58 % 0 mm 682 W/m2
17:20 -2.9 °C -7.9 °C 34428.8 hPa WNW 10.3 km/h 23.3 km/h 58 % 0 mm 663 W/m2
17:25 -3.1 °C -7.7 °C 34428.8 hPa West 15.6 km/h 23.3 km/h 60 % 0 mm 643 W/m2
17:35 -3.5 °C -8.4 °C 34418.7 hPa WNW 12.9 km/h 28.5 km/h 58 % 0 mm 635 W/m2
17:40 -3.4 °C -8.5 °C 34418.7 hPa NW 7.7 km/h 28.5 km/h 57 % 0 mm 621 W/m2
17:45 -3.3 °C -8.4 °C 34418.7 hPa West 10.3 km/h 23.3 km/h 57 % 0 mm 608 W/m2
17:50 -2.9 °C -8.1 °C 34418.7 hPa West 10.3 km/h 18.2 km/h 57 % 0 mm 598 W/m2
17:55 -2.6 °C -8.2 °C 34405.1 hPa West 7.7 km/h 18.2 km/h 54 % 0 mm 584 W/m2
18:00 -3 °C -8.6 °C 34405.1 hPa WSW 10.3 km/h 20.8 km/h 54 % 0 mm 571 W/m2
18:05 -3.2 °C -8.6 °C 34405.1 hPa WSW 5.1 km/h 20.8 km/h 55 % 0 mm 557 W/m2
18:10 -2.9 °C -8.4 °C 34405.1 hPa WSW 23.3 km/h 23.3 km/h 55 % 0 mm 541 W/m2
18:15 -3.2 °C -8.6 °C 34405.1 hPa West 10.3 km/h 28.5 km/h 55 % 0 mm 533 W/m2
18:20 -3.1 °C -8.5 °C 34405.1 hPa West 2.6 km/h 28.5 km/h 55 % 0 mm 517 W/m2
18:25 -2.9 °C -8.4 °C 34405.1 hPa WSW 7.7 km/h 20.8 km/h 55 % 0 mm 497 W/m2
18:30 -3.2 °C -8.4 °C 34395 hPa West 2.6 km/h 20.8 km/h 56 % 0 mm 492 W/m2
18:35 -3.3 °C -8.4 °C 34395 hPa West 7.7 km/h 20.8 km/h 57 % 0 mm 478 W/m2
18:40 -3.2 °C -8.4 °C 34395 hPa WSW 10.3 km/h 15.6 km/h 56 % 0 mm 464 W/m2
18:45 -3.2 °C -8.1 °C 34395 hPa NW 7.7 km/h 15.6 km/h 58 % 0 mm 454 W/m2
18:50 -3.3 °C -8 °C 34395 hPa West 10.3 km/h 15.6 km/h 60 % 0 mm 438 W/m2
18:55 -3.1 °C -7.6 °C 34395 hPa WSW 15.6 km/h 15.6 km/h 61 % 0 mm 422 W/m2
19:00 -3.2 °C -8.2 °C 34395 hPa West 7.7 km/h 15.6 km/h 58 % 0 mm 406 W/m2
19:05 -2.9 °C -8.1 °C 34384.8 hPa Calm   15.6 km/h 57 % 0 mm 390 W/m2
19:10 -2.7 °C -7.8 °C 34384.8 hPa SSW 15.6 km/h 15.6 km/h 57 % 0 mm 359 W/m2
19:15 -2.7 °C -7.7 °C 34384.8 hPa West 2.6 km/h 15.6 km/h 58 % 0 mm 367 W/m2
19:20 -2.9 °C -7.7 °C 34384.8 hPa West 5.1 km/h 15.6 km/h 59 % 0 mm 355 W/m2
19:25 -3.2 °C -7.7 °C 34384.8 hPa Calm   15.6 km/h 61 % 0 mm 323 W/m2
19:30 -3.3 °C -7.6 °C 34384.8 hPa WSW 7.7 km/h 12.9 km/h 62 % 0 mm 323 W/m2
19:35 -3.2 °C -7.7 °C 34384.8 hPa WSW 7.7 km/h 12.9 km/h 61 % 0 mm 306 W/m2
19:40 -3.1 °C -7.4 °C 34371.3 hPa Calm   12.9 km/h 62 % 0 mm 279 W/m2
19:45 -2.9 °C -7.3 °C 34371.3 hPa Calm   7.7 km/h 62 % 0 mm 258 W/m2
19:50 -2.9 °C -7.4 °C 34371.3 hPa WSW 2.6 km/h 7.7 km/h 61 % 0 mm 232 W/m2
19:55 -3 °C -7.4 °C 34371.3 hPa Calm   5.1 km/h 62 % 0 mm 211 W/m2
20:00 -2.9 °C -7.4 °C 34371.3 hPa Calm   5.1 km/h 61 % 0 mm 193 W/m2
20:05 -2.7 °C -7.4 °C 34371.3 hPa SW 2.6 km/h 7.7 km/h 60 % 0 mm 183 W/m2
20:10 -2.9 °C -7.3 °C 34371.3 hPa SW 5.1 km/h 7.7 km/h 62 % 0 mm 176 W/m2
20:15 -2.9 °C -7.4 °C 34371.3 hPa SW 2.6 km/h 7.7 km/h 61 % 0 mm 169 W/m2
20:20 -2.9 °C -7.6 °C 34361.1 hPa Calm   7.7 km/h 60 % 0 mm 155 W/m2
20:25 -3.1 °C -7.3 °C 34361.1 hPa Calm   5.1 km/h 63 % 0 mm 132 W/m2
20:30 -3 °C -7.1 °C 34361.1 hPa Calm   7.7 km/h 64 % 0 mm 116 W/m2
20:35 -3 °C -7.5 °C 34361.1 hPa Calm   7.7 km/h 61 % 0 mm 100 W/m2
20:40 -2.6 °C -7.7 °C 34361.1 hPa ENE 5.1 km/h 12.9 km/h 57 % 0 mm 69 W/m2
20:45 -2.7 °C -8.2 °C 34361.1 hPa NE 10.3 km/h 23.3 km/h 55 % 0 mm 33 W/m2
20:50 -2.6 °C -8.7 °C 34361.1 hPa ENE 2.6 km/h 23.3 km/h 51 % 0 mm 32 W/m2
20:55 -2.6 °C -8.7 °C 34361.1 hPa ENE 5.1 km/h 31.1 km/h 51 % 0 mm 28 W/m2
21:00 -2.6 °C -8.9 °C 34361.1 hPa NE 7.7 km/h 31.1 km/h 50 % 0 mm 28 W/m2
21:05 -2.6 °C -8.9 °C 34361.1 hPa ENE 7.7 km/h 28.5 km/h 50 % 0 mm 26 W/m2
21:10 -2.6 °C -8.9 °C 34361.1 hPa NE 2.6 km/h 28.5 km/h 50 % 0 mm 23 W/m2
21:15 -2.7 °C -8.7 °C 34361.1 hPa East 10.3 km/h 25.9 km/h 52 % 0 mm 21 W/m2
21:20 -2.8 °C -8.9 °C 34361.1 hPa East 10.3 km/h 25.9 km/h 51 % 0 mm 19 W/m2
21:25 -2.8 °C -8.7 °C 34361.1 hPa ENE 5.1 km/h 23.3 km/h 52 % 0 mm 18 W/m2
21:30 -2.9 °C -9.1 °C 34361.1 hPa East 15.6 km/h 23.3 km/h 51 % 0 mm 16 W/m2
21:35 -3 °C -9.1 °C 34361.1 hPa ENE 10.3 km/h 25.9 km/h 51 % 0 mm 14 W/m2
21:40 -3.1 °C -9.3 °C 34361.1 hPa East 5.1 km/h 25.9 km/h 50 % 0 mm 12 W/m2
21:45 -3.2 °C -9.2 °C 34361.1 hPa ENE 12.9 km/h 25.9 km/h 51 % 0 mm 11 W/m2
21:50 -3.3 °C -9.2 °C 34361.1 hPa ENE 7.7 km/h 23.3 km/h 52 % 0 mm 9 W/m2
21:55 -3.4 °C -9.3 °C 34361.1 hPa NE 7.7 km/h 23.3 km/h 52 % 0 mm 7 W/m2
22:00 -3.6 °C -9.3 °C 34361.1 hPa NNE 2.6 km/h 20.8 km/h 53 % 0 mm 5 W/m2
22:05 -3.7 °C -9.2 °C 34361.1 hPa NE 5.1 km/h 18.2 km/h 54 % 0 mm 0 W/m2
22:10 -3.8 °C -9.4 °C 34361.1 hPa ENE 18.2 km/h 18.2 km/h 54 % 0 mm 0 W/m2
22:15 -3.9 °C -9.5 °C 34371.3 hPa Calm   25.9 km/h 54 % 0 mm 0 W/m2
22:20 -4.1 °C -9.4 °C 34371.3 hPa ENE 7.7 km/h 25.9 km/h 55 % 0 mm 0 W/m2
22:25 -4.2 °C -9.4 °C 34371.3 hPa NE 2.6 km/h 15.6 km/h 56 % 0 mm 0 W/m2
22:30 -4.3 °C -9.5 °C 34371.3 hPa ENE 5.1 km/h 15.6 km/h 56 % 0 mm 0 W/m2
22:40 -4.8 °C -9.3 °C 34371.3 hPa East 2.6 km/h 12.9 km/h 60 % 0 mm 0 W/m2
22:45 -4.8 °C -9.5 °C 34371.3 hPa East 7.7 km/h 12.9 km/h 59 % 0 mm 0 W/m2
22:50 -4.8 °C -9.5 °C 34371.3 hPa Calm   12.9 km/h 59 % 0 mm 0 W/m2
22:55 -4.9 °C -9.4 °C 34371.3 hPa ENE 7.7 km/h 15.6 km/h 60 % 0 mm 0 W/m2
23:00 -4.9 °C -9.5 °C 34371.3 hPa ENE 5.1 km/h 15.6 km/h 60 % 0 mm 0 W/m2
23:05 -5.2 °C -9.4 °C 34371.3 hPa NE 5.1 km/h 10.3 km/h 62 % 0 mm 0 W/m2
23:10 -5.5 °C -9.5 °C 34371.3 hPa NE 5.1 km/h 10.3 km/h 64 % 0 mm 0 W/m2
23:15 -5.7 °C -9.5 °C 34371.3 hPa ENE 2.6 km/h 12.9 km/h 65 % 0 mm 0 W/m2
23:20 -5.7 °C -9.4 °C 34371.3 hPa Calm   12.9 km/h 66 % 0 mm 0 W/m2
23:25 -5.8 °C -9.5 °C 34371.3 hPa Calm   12.9 km/h 66 % 0 mm 0 W/m2
23:30 -5.9 °C -9.5 °C 34371.3 hPa East 5.1 km/h 12.9 km/h 67 % 0 mm 0 W/m2
23:35 -5.8 °C -9.5 °C 34371.3 hPa ENE 7.7 km/h 18.2 km/h 66 % 0 mm 0 W/m2
23:40 -5.9 °C -9.4 °C 34371.3 hPa ENE 5.1 km/h 18.2 km/h 67 % 0 mm 0 W/m2
23:45 -5.7 °C -9.4 °C 34371.3 hPa ENE 2.6 km/h 18.2 km/h 66 % 0 mm 0 W/m2
23:50 -5.6 °C -9.4 °C 34371.3 hPa ENE 2.6 km/h 18.2 km/h 65 % 0 mm 0 W/m2
23:55 -5.7 °C -9.4 °C 34371.3 hPa ENE 7.7 km/h 20.8 km/h 66 % 0 mm 0 W/m2
Avec l'autorisation de Weather Underground - 1.75 mb